createdAt,value
2019-02-18T00:02:05.719Z,28.42
2019-02-18T00:04:37.658Z,29.00
2019-02-18T00:07:14.555Z,28.70
2019-02-18T00:09:46.062Z,26.33
2019-02-18T00:12:17.944Z,24.75
2019-02-18T00:14:52.259Z,25.25
2019-02-18T00:17:24.192Z,25.70
2019-02-18T00:19:56.156Z,27.62
2019-02-18T00:22:28.051Z,29.65
2019-02-18T00:25:00.314Z,31.93
2019-02-18T00:27:32.103Z,30.35
2019-02-18T00:30:04.112Z,29.70
2019-02-18T00:32:35.960Z,29.82
2019-02-18T00:35:07.858Z,27.45
2019-02-18T00:37:39.704Z,26.42
2019-02-18T00:40:11.865Z,24.82
2019-02-18T00:42:46.311Z,26.85
2019-02-18T00:45:18.116Z,26.77
2019-02-18T00:47:50.320Z,25.12
2019-02-18T00:50:22.118Z,24.50
2019-02-18T00:52:56.174Z,24.40
2019-02-18T00:55:28.033Z,22.95
2019-02-18T00:57:59.831Z,24.95
2019-02-18T01:00:31.679Z,24.35
2019-02-18T01:03:03.569Z,22.27
2019-02-18T01:05:35.434Z,23.15
2019-02-18T01:08:07.318Z,21.17
2019-02-18T01:10:39.179Z,22.77
2019-02-18T01:13:10.952Z,22.32
2019-02-18T01:15:42.815Z,26.40
2019-02-18T01:18:14.687Z,24.85
2019-02-18T01:20:46.531Z,24.52
2019-02-18T01:23:18.414Z,24.27
2019-02-18T01:25:50.292Z,25.50
2019-02-18T01:28:22.124Z,24.67
2019-02-18T01:30:53.960Z,24.82
2019-02-18T01:33:25.752Z,25.15
2019-02-18T01:35:57.644Z,23.95
2019-02-18T01:38:31.178Z,23.73
2019-02-18T01:41:04.734Z,23.92
2019-02-18T01:43:36.602Z,27.15
2019-02-18T01:46:08.504Z,25.65
2019-02-18T01:48:40.408Z,25.15
2019-02-18T01:51:12.242Z,25.45
2019-02-18T01:53:47.205Z,27.67
2019-02-18T01:56:19.016Z,27.45
2019-02-18T01:58:51.044Z,26.40
2019-02-18T02:01:22.882Z,26.65
2019-02-18T02:03:56.361Z,25.00
2019-02-18T02:06:28.229Z,18.62
2019-02-18T02:09:00.138Z,15.53
2019-02-18T02:11:31.997Z,13.62
2019-02-18T02:14:06.385Z,13.90
2019-02-18T02:16:38.596Z,10.98
2019-02-18T02:19:10.814Z,9.03
2019-02-18T02:21:42.616Z,9.93
2019-02-18T02:24:14.451Z,10.40
2019-02-18T02:26:46.279Z,13.32
2019-02-18T02:29:18.152Z,14.95
2019-02-18T02:31:49.982Z,16.77
2019-02-18T02:34:21.782Z,21.05
2019-02-18T02:36:53.660Z,19.77
2019-02-18T02:39:25.501Z,22.95
2019-02-18T02:41:57.366Z,21.33
2019-02-18T02:44:29.171Z,20.62
2019-02-18T02:47:01.317Z,16.30
2019-02-18T02:49:33.209Z,15.48
2019-02-18T02:52:07.687Z,14.80
2019-02-18T02:54:42.843Z,14.90
2019-02-18T02:57:14.662Z,14.45
2019-02-18T02:59:46.509Z,14.70
2019-02-18T03:02:24.598Z,15.70
2019-02-18T03:04:56.387Z,17.90
2019-02-18T03:07:28.402Z,19.40
2019-02-18T03:10:00.868Z,20.17
2019-02-18T03:12:32.783Z,18.45
2019-02-18T03:15:05.817Z,17.95
2019-02-18T03:17:37.637Z,18.62
2019-02-18T03:20:09.745Z,18.95
2019-02-18T03:22:41.559Z,18.70
2019-02-18T03:25:23.914Z,19.37
2019-02-18T03:28:28.669Z,19.10
2019-02-18T03:31:10.305Z,19.42
2019-02-18T03:33:45.801Z,17.17
2019-02-18T03:36:17.644Z,17.00
2019-02-18T03:38:49.485Z,14.68
2019-02-18T03:41:21.861Z,15.13
2019-02-18T03:43:53.656Z,15.32
2019-02-18T03:46:25.512Z,15.65
2019-02-18T03:48:57.351Z,15.55
2019-02-18T03:51:29.148Z,14.78
2019-02-18T03:54:01.397Z,15.18
2019-02-18T03:56:33.222Z,14.55
2019-02-18T03:59:05.135Z,15.08
2019-02-18T04:01:38.216Z,14.13
2019-02-18T04:04:10.173Z,15.18
2019-02-18T04:06:42.014Z,14.80
2019-02-18T04:09:13.873Z,14.15
2019-02-18T04:11:45.861Z,15.40
2019-02-18T04:14:18.739Z,14.98
2019-02-18T04:16:50.600Z,16.27
2019-02-18T04:19:22.459Z,15.98
2019-02-18T04:21:54.329Z,15.78
2019-02-18T04:24:26.141Z,15.70
2019-02-18T04:26:57.993Z,15.70
2019-02-18T04:29:29.816Z,16.27
2019-02-18T04:32:01.817Z,15.58
2019-02-18T04:34:33.677Z,15.75
2019-02-18T04:37:05.623Z,16.48
2019-02-18T04:39:37.500Z,15.05
2019-02-18T04:42:09.423Z,16.48
2019-02-18T04:44:41.303Z,15.50
2019-02-18T04:47:13.287Z,15.72
2019-02-18T04:49:45.148Z,15.83
2019-02-18T04:52:17.008Z,15.00
2019-02-18T04:54:51.868Z,14.75
2019-02-18T04:57:23.751Z,13.30
2019-02-18T04:59:55.606Z,13.53
2019-02-18T05:02:27.551Z,14.00
2019-02-18T05:04:59.727Z,13.98
2019-02-18T05:07:31.589Z,13.00
2019-02-18T05:10:03.386Z,13.32
2019-02-18T05:12:35.218Z,11.20
2019-02-18T05:15:07.591Z,11.38
2019-02-18T05:17:41.245Z,10.28
2019-02-18T05:20:13.228Z,9.63
2019-02-18T05:22:45.078Z,10.78
2019-02-18T05:25:16.869Z,9.15
2019-02-18T05:27:48.994Z,9.85
2019-02-18T05:30:20.813Z,9.85
2019-02-18T05:32:52.650Z,9.48
2019-02-18T05:35:24.439Z,9.10
2019-02-18T05:37:56.316Z,8.40
2019-02-18T05:40:28.110Z,8.38
2019-02-18T05:42:59.941Z,9.05
2019-02-18T05:45:31.740Z,9.08
2019-02-18T05:48:03.566Z,9.88
2019-02-18T05:50:35.453Z,9.45
2019-02-18T05:53:07.395Z,9.80
2019-02-18T05:55:39.215Z,10.53
2019-02-18T05:58:11.073Z,13.25
2019-02-18T06:00:43.066Z,12.53
2019-02-18T06:03:15.667Z,13.05
2019-02-18T06:05:47.515Z,12.60
2019-02-18T06:08:19.341Z,13.32
2019-02-18T06:10:51.202Z,11.25
2019-02-18T06:13:23.035Z,11.35
2019-02-18T06:15:55.273Z,11.73
2019-02-18T06:18:27.108Z,11.90
2019-02-18T06:20:58.929Z,11.20
2019-02-18T06:23:30.727Z,10.98
2019-02-18T06:26:02.570Z,12.80
2019-02-18T06:28:34.453Z,11.97
2019-02-18T06:31:07.477Z,12.78
2019-02-18T06:33:39.309Z,12.70
2019-02-18T06:36:11.159Z,14.05
2019-02-18T06:38:43.005Z,14.83
2019-02-18T06:41:14.815Z,14.05
2019-02-18T06:43:46.618Z,13.85
2019-02-18T06:46:28.128Z,13.70
2019-02-18T06:49:07.165Z,14.95
2019-02-18T06:51:38.950Z,14.70
2019-02-18T06:54:11.537Z,14.53
2019-02-18T06:57:11.305Z,12.30
2019-02-18T06:59:47.126Z,12.63
2019-02-18T07:02:47.581Z,12.55
2019-02-18T07:05:29.392Z,12.58
2019-02-18T07:08:20.349Z,12.20
2019-02-18T07:10:58.988Z,13.40
2019-02-18T07:13:30.892Z,12.45
2019-02-18T07:16:03.042Z,13.43
2019-02-18T07:18:34.905Z,14.68
2019-02-18T07:21:06.706Z,13.08
2019-02-18T07:23:41.095Z,12.35
2019-02-18T07:26:14.412Z,11.68
2019-02-18T07:28:46.214Z,12.33
2019-02-18T07:31:18.083Z,12.33
2019-02-18T07:33:49.865Z,11.70
2019-02-18T07:36:21.740Z,11.65
2019-02-18T07:38:53.658Z,11.53
2019-02-18T07:41:25.628Z,11.90
2019-02-18T07:43:57.447Z,12.20
2019-02-18T07:46:31.893Z,12.47
2019-02-18T07:49:03.723Z,11.73
2019-02-18T07:51:35.536Z,11.28
2019-02-18T07:54:10.309Z,10.35
2019-02-18T07:56:42.346Z,13.03
2019-02-18T07:59:16.805Z,12.80
2019-02-18T08:01:48.873Z,14.58
2019-02-18T08:04:21.665Z,13.32
2019-02-18T08:06:53.675Z,13.58
2019-02-18T08:09:25.597Z,13.48
2019-02-18T08:11:57.459Z,14.30
2019-02-18T08:14:30.435Z,16.40
2019-02-18T08:17:04.251Z,14.03
2019-02-18T08:19:36.067Z,12.98
2019-02-18T08:22:08.195Z,11.83
2019-02-18T08:24:40.065Z,12.05
2019-02-18T08:27:11.875Z,12.00
2019-02-18T08:29:43.765Z,11.60
2019-02-18T08:32:16.378Z,12.53
2019-02-18T08:34:48.649Z,12.03
2019-02-18T08:37:22.038Z,11.20
2019-02-18T08:39:56.289Z,12.33
2019-02-18T08:42:28.080Z,11.08
2019-02-18T08:44:59.935Z,13.18
2019-02-18T08:47:31.766Z,13.10
2019-02-18T08:50:03.626Z,11.90
2019-02-18T08:52:35.505Z,11.55
2019-02-18T08:55:09.146Z,11.55
2019-02-18T08:57:41.014Z,10.05
2019-02-18T09:00:15.456Z,9.63
2019-02-18T09:02:47.377Z,10.60
2019-02-18T09:05:19.405Z,9.68
2019-02-18T09:07:51.329Z,10.13
2019-02-18T09:10:33.060Z,11.12
2019-02-18T09:12:56.819Z,11.63
2019-02-18T09:15:29.672Z,11.05
2019-02-18T09:18:01.529Z,11.83
2019-02-18T09:20:34.141Z,11.28
2019-02-18T09:23:23.448Z,11.50
2019-02-18T09:25:58.078Z,10.68
2019-02-18T09:28:29.911Z,10.63
2019-02-18T09:31:01.781Z,11.70
2019-02-18T09:33:33.629Z,11.43
2019-02-18T09:36:05.429Z,12.47
2019-02-18T09:38:37.471Z,10.88
2019-02-18T09:41:09.359Z,11.68
2019-02-18T09:43:41.156Z,12.15
2019-02-18T09:46:13.079Z,12.95
2019-02-18T09:48:44.897Z,10.63
2019-02-18T09:51:19.732Z,12.63
2019-02-18T09:53:51.585Z,66.20
2019-02-18T09:56:23.485Z,26.23
2019-02-18T09:58:56.829Z,14.60
2019-02-18T10:01:29.750Z,14.47
2019-02-18T10:04:01.846Z,15.00
2019-02-18T10:06:33.899Z,15.58
2019-02-18T10:09:07.622Z,15.03
2019-02-18T10:11:39.541Z,15.35
2019-02-18T10:14:11.385Z,20.12
2019-02-18T10:16:43.231Z,16.10
2019-02-18T10:19:15.058Z,15.28
2019-02-18T10:21:46.904Z,13.85
2019-02-18T10:24:18.721Z,13.20
2019-02-18T10:26:50.553Z,13.43
2019-02-18T10:29:22.401Z,13.40
2019-02-18T10:31:54.257Z,14.20
2019-02-18T10:34:26.050Z,13.53
2019-02-18T10:36:57.917Z,12.55
2019-02-18T10:39:29.713Z,13.10
2019-02-18T10:42:01.588Z,14.43
2019-02-18T10:44:36.769Z,13.68
2019-02-18T10:47:10.240Z,14.65
2019-02-18T10:49:42.065Z,19.73
2019-02-18T10:52:13.959Z,15.20
2019-02-18T10:54:45.861Z,13.20
2019-02-18T10:57:17.705Z,6.95
2019-02-18T10:59:51.568Z,6.35
2019-02-18T11:02:25.268Z,5.53
2019-02-18T11:04:57.155Z,4.80
2019-02-18T11:07:28.973Z,5.17
2019-02-18T11:10:00.829Z,4.95
2019-02-18T11:12:32.786Z,5.50
2019-02-18T11:15:04.673Z,5.58
2019-02-18T11:17:38.989Z,6.00
2019-02-18T11:20:10.934Z,5.42
2019-02-18T11:22:42.813Z,5.70
2019-02-18T11:25:14.974Z,6.05
2019-02-18T11:27:46.796Z,6.67
2019-02-18T11:30:20.440Z,11.03
2019-02-18T11:32:52.274Z,10.45
2019-02-18T11:35:24.131Z,7.62
2019-02-18T11:37:56.307Z,8.75
2019-02-18T11:40:28.210Z,7.08
2019-02-18T11:43:00.411Z,6.40
2019-02-18T11:45:34.680Z,8.30
2019-02-18T11:48:05.790Z,7.72
2019-02-18T11:50:39.355Z,9.38
2019-02-18T11:53:11.783Z,8.25
2019-02-18T11:55:43.580Z,7.75
2019-02-18T11:58:15.434Z,8.10
2019-02-18T12:00:47.578Z,8.50
2019-02-18T12:03:19.501Z,8.60
2019-02-18T12:05:53.440Z,10.13
2019-02-18T12:08:25.233Z,11.48
2019-02-18T12:10:57.066Z,11.50
2019-02-18T12:13:29.102Z,11.57
2019-02-18T12:16:02.567Z,10.50
2019-02-18T12:18:36.415Z,11.12
2019-02-18T12:21:09.359Z,11.45
2019-02-18T12:23:41.269Z,10.90
2019-02-18T12:26:13.194Z,11.57
2019-02-18T12:28:45.339Z,11.53
2019-02-18T12:31:17.234Z,12.78
2019-02-18T12:33:52.470Z,12.25
2019-02-18T12:36:24.370Z,13.35
2019-02-18T12:38:56.631Z,13.48
2019-02-18T12:41:28.886Z,14.47
2019-02-18T12:44:05.212Z,13.75
2019-02-18T12:46:37.044Z,11.80
2019-02-18T12:49:09.897Z,10.68
2019-02-18T12:51:41.790Z,8.83
2019-02-18T12:54:13.595Z,9.95
2019-02-18T12:56:45.437Z,9.70
2019-02-18T12:59:17.327Z,9.85
2019-02-18T13:01:49.213Z,9.90
2019-02-18T13:04:21.379Z,11.57
2019-02-18T13:06:53.826Z,9.98
2019-02-18T13:09:28.514Z,9.20
2019-02-18T13:12:00.434Z,9.55
2019-02-18T13:14:32.310Z,9.80
2019-02-18T13:17:04.386Z,10.20
2019-02-18T13:19:36.248Z,15.03
2019-02-18T13:22:08.098Z,11.65
2019-02-18T13:24:39.993Z,12.15
2019-02-18T13:27:11.943Z,11.75
2019-02-18T13:29:44.235Z,11.95
2019-02-18T13:32:16.108Z,13.78
2019-02-18T13:34:48.098Z,12.95
2019-02-18T13:37:19.920Z,11.80
2019-02-18T13:39:52.280Z,11.73
2019-02-18T13:42:24.283Z,11.85
2019-02-18T13:44:56.365Z,13.95
2019-02-18T13:47:29.463Z,12.13
2019-02-18T13:50:01.426Z,12.85
2019-02-18T13:52:33.860Z,13.15
2019-02-18T13:55:06.426Z,13.08
2019-02-18T13:57:39.671Z,13.70
2019-02-18T14:00:18.506Z,12.98
2019-02-18T14:02:51.131Z,13.38
2019-02-18T14:05:23.082Z,12.53
2019-02-18T14:07:55.767Z,13.75
2019-02-18T14:10:28.038Z,13.22
2019-02-18T14:13:00.226Z,14.25
2019-02-18T14:15:33.673Z,15.00
2019-02-18T14:18:05.795Z,13.50
2019-02-18T14:20:37.724Z,13.98
2019-02-18T14:23:10.090Z,14.30
2019-02-18T14:25:43.226Z,13.22
2019-02-18T14:28:15.063Z,14.03
2019-02-18T14:30:48.652Z,14.85
2019-02-18T14:33:20.922Z,16.82
2019-02-18T14:35:52.824Z,16.27
2019-02-18T14:38:26.323Z,17.17
2019-02-18T14:40:58.185Z,15.25
2019-02-18T14:43:29.979Z,14.30
2019-02-18T14:46:01.928Z,14.40
2019-02-18T14:48:33.755Z,11.57
2019-02-18T14:51:05.867Z,11.15
2019-02-18T14:53:40.563Z,11.33
2019-02-18T14:56:14.154Z,11.30
2019-02-18T14:58:46.115Z,11.78
2019-02-18T15:01:18.350Z,11.93
2019-02-18T15:03:50.257Z,12.30
2019-02-18T15:06:23.709Z,13.05
2019-02-18T15:08:55.773Z,12.23
2019-02-18T15:11:27.686Z,13.55
2019-02-18T15:13:59.531Z,14.10
2019-02-18T15:16:31.720Z,14.58
2019-02-18T15:19:03.643Z,14.03
2019-02-18T15:21:37.854Z,15.20
2019-02-18T15:24:09.731Z,15.53
2019-02-18T15:26:41.598Z,17.45
2019-02-18T15:29:13.493Z,19.57
2019-02-18T15:31:45.332Z,17.90
2019-02-18T15:34:17.204Z,15.55
2019-02-18T15:36:49.131Z,14.25
2019-02-18T15:39:23.704Z,16.77
2019-02-18T15:41:55.640Z,16.40
2019-02-18T15:44:29.550Z,17.15
2019-02-18T15:47:02.561Z,13.53
2019-02-18T15:49:34.519Z,14.23
2019-02-18T15:52:06.409Z,15.00
2019-02-18T15:54:38.232Z,16.10
2019-02-18T15:57:10.326Z,14.87
2019-02-18T15:59:42.120Z,15.78
2019-02-18T16:02:14.388Z,16.82
2019-02-18T16:04:46.244Z,18.20
2019-02-18T16:07:18.144Z,16.15
2019-02-18T16:09:50.196Z,14.85
2019-02-18T16:12:22.027Z,17.02
2019-02-18T16:14:53.822Z,17.17
2019-02-18T16:17:26.084Z,18.07
2019-02-18T16:19:57.871Z,18.52
2019-02-18T16:22:29.720Z,17.02
2019-02-18T16:25:01.521Z,17.30
2019-02-18T16:27:33.456Z,16.23
2019-02-18T16:30:05.882Z,16.77
2019-02-18T16:32:37.739Z,17.27
2019-02-18T16:35:09.914Z,17.50
2019-02-18T16:37:42.375Z,18.50
2019-02-18T16:40:16.172Z,23.50
2019-02-18T16:42:49.196Z,25.43
2019-02-18T16:45:22.942Z,26.35
2019-02-18T16:47:54.759Z,26.35
2019-02-18T16:50:32.767Z,22.80
2019-02-18T16:53:04.887Z,22.15
2019-02-18T16:55:37.293Z,24.40
2019-02-18T16:58:09.080Z,23.40
2019-02-18T17:00:40.929Z,25.50
2019-02-18T17:03:12.723Z,25.65
2019-02-18T17:05:44.968Z,23.92
2019-02-18T17:08:19.146Z,22.80
2019-02-18T17:10:50.990Z,21.27
2019-02-18T17:13:24.619Z,21.37
2019-02-18T17:15:56.447Z,16.23
2019-02-18T17:18:28.721Z,12.93
2019-02-18T17:21:00.988Z,13.25
2019-02-18T17:23:32.834Z,12.28
2019-02-18T17:26:04.621Z,13.85
2019-02-18T17:28:36.463Z,14.13
2019-02-18T17:31:08.276Z,15.95
2019-02-18T17:33:40.139Z,17.55
2019-02-18T17:36:11.924Z,17.00
2019-02-18T17:38:44.199Z,15.35
2019-02-18T17:41:17.871Z,16.82
2019-02-18T17:43:49.868Z,22.82
2019-02-18T17:46:21.668Z,33.75
2019-02-18T17:48:55.326Z,46.02
2019-02-18T17:51:27.148Z,43.08
2019-02-18T17:53:59.121Z,44.83
2019-02-18T17:56:34.757Z,41.05
2019-02-18T17:59:11.433Z,33.25
2019-02-18T18:01:43.682Z,35.15
2019-02-18T18:04:15.543Z,35.35
2019-02-18T18:06:47.376Z,32.33
2019-02-18T18:09:19.685Z,32.78
2019-02-18T18:11:55.555Z,32.30
2019-02-18T18:14:35.960Z,30.10
2019-02-18T18:17:29.773Z,38.78
2019-02-18T18:20:11.008Z,34.25
2019-02-18T18:23:08.678Z,32.33
2019-02-18T18:25:52.754Z,29.25
2019-02-18T18:28:25.289Z,32.80
2019-02-18T18:30:57.200Z,57.55
2019-02-18T18:33:29.030Z,46.68
2019-02-18T18:36:02.311Z,43.78
2019-02-18T18:38:34.812Z,43.05
2019-02-18T18:41:06.834Z,42.25
2019-02-18T18:43:38.913Z,42.85
2019-02-18T18:46:10.782Z,38.67
2019-02-18T18:48:42.758Z,37.93
2019-02-18T18:51:14.750Z,39.55
2019-02-18T18:53:46.873Z,57.50
2019-02-18T18:56:18.674Z,49.93
2019-02-18T18:58:50.538Z,38.65
2019-02-18T19:01:22.363Z,38.67
2019-02-18T19:03:54.212Z,37.53
2019-02-18T19:06:26.181Z,38.63
2019-02-18T19:08:58.356Z,39.23
2019-02-18T19:11:30.631Z,37.42
2019-02-18T19:14:02.485Z,40.98
2019-02-18T19:16:35.763Z,39.65
2019-02-18T19:19:08.434Z,41.20
2019-02-18T19:21:42.938Z,42.80
2019-02-18T19:24:15.916Z,44.20
2019-02-18T19:26:47.965Z,40.40
2019-02-18T19:29:20.184Z,41.42
2019-02-18T19:31:52.099Z,42.20
2019-02-18T19:34:28.075Z,41.37
2019-02-18T19:37:00.009Z,42.75
2019-02-18T19:39:31.996Z,39.67
2019-02-18T19:42:06.430Z,41.95
2019-02-18T19:44:40.071Z,40.75
2019-02-18T19:47:11.894Z,44.13
2019-02-18T19:49:45.660Z,41.15
2019-02-18T19:52:17.738Z,40.52
2019-02-18T19:54:50.401Z,42.75
2019-02-18T19:57:22.319Z,43.65
2019-02-18T19:59:54.257Z,56.98
2019-02-18T20:02:27.762Z,49.30
2019-02-18T20:05:02.167Z,74.82
2019-02-18T20:07:34.610Z,66.60
2019-02-18T20:10:08.122Z,61.73
2019-02-18T20:12:39.982Z,63.08
2019-02-18T20:15:12.753Z,80.25
2019-02-18T20:17:44.711Z,76.75
2019-02-18T20:20:16.635Z,64.20
2019-02-18T20:22:48.612Z,63.45
2019-02-18T20:25:20.522Z,60.65
2019-02-18T20:27:52.814Z,58.15
2019-02-18T20:30:29.050Z,60.03
2019-02-18T20:33:01.004Z,56.68
2019-02-18T20:35:32.925Z,58.78
2019-02-18T20:38:04.871Z,60.33
2019-02-18T20:40:39.822Z,68.78
2019-02-18T20:43:11.895Z,82.90
2019-02-18T20:45:43.802Z,71.77
2019-02-18T20:48:15.745Z,65.62
2019-02-18T20:50:47.909Z,68.47
2019-02-18T20:53:19.919Z,65.28
2019-02-18T20:55:52.261Z,75.35
2019-02-18T20:58:24.171Z,85.80
2019-02-18T21:00:56.071Z,82.02
2019-02-18T21:03:28.127Z,89.75
2019-02-18T21:06:00.119Z,71.65
2019-02-18T21:08:32.153Z,62.58
2019-02-18T21:11:04.059Z,64.80
2019-02-18T21:13:36.030Z,67.12
2019-02-18T21:16:07.942Z,66.28
2019-02-18T21:18:39.876Z,63.35
2019-02-18T21:21:12.326Z,56.25
2019-02-18T21:23:44.286Z,61.45
2019-02-18T21:26:16.848Z,62.13
2019-02-18T21:28:48.817Z,66.25
2019-02-18T21:31:20.736Z,59.95
2019-02-18T21:33:53.040Z,61.30
2019-02-18T21:36:25.480Z,59.50
2019-02-18T21:38:57.739Z,67.10
2019-02-18T21:41:31.795Z,62.38
2019-02-18T21:44:04.052Z,61.23
2019-02-18T21:46:35.958Z,79.92
2019-02-18T21:49:08.317Z,81.60
2019-02-18T21:51:40.306Z,77.17
2019-02-18T21:54:12.233Z,64.35
2019-02-18T21:56:47.123Z,53.63
2019-02-18T21:59:19.049Z,50.83
2019-02-18T22:01:51.564Z,60.52
2019-02-18T22:04:25.709Z,62.10
2019-02-18T22:06:59.236Z,64.00
2019-02-18T22:09:31.106Z,67.92
2019-02-18T22:12:05.179Z,67.37
2019-02-18T22:14:36.986Z,64.97
2019-02-18T22:17:09.249Z,56.95
2019-02-18T22:19:41.067Z,57.83
2019-02-18T22:22:13.579Z,55.10
2019-02-18T22:24:45.755Z,53.73
2019-02-18T22:27:18.221Z,53.80
2019-02-18T22:29:50.177Z,54.10
2019-02-18T22:32:22.000Z,53.75
2019-02-18T22:34:53.843Z,53.90
2019-02-18T22:37:25.784Z,53.75
2019-02-18T22:39:57.951Z,55.90
2019-02-18T22:42:30.221Z,56.73
2019-02-18T22:45:04.171Z,55.03
2019-02-18T22:47:35.999Z,54.20
2019-02-18T22:50:09.144Z,49.20
2019-02-18T22:52:41.991Z,49.95
2019-02-18T22:55:14.200Z,49.75
2019-02-18T22:57:46.589Z,50.23
2019-02-18T23:00:45.638Z,53.60
2019-02-18T23:03:19.493Z,58.02
2019-02-18T23:05:51.864Z,50.50
2019-02-18T23:08:23.767Z,60.67
2019-02-18T23:10:55.615Z,57.60
2019-02-18T23:13:27.555Z,56.73
2019-02-18T23:16:00.111Z,56.37
2019-02-18T23:18:34.886Z,54.67
2019-02-18T23:21:06.832Z,52.00
2019-02-18T23:23:38.730Z,54.13
2019-02-18T23:26:10.583Z,58.38
2019-02-18T23:28:42.808Z,57.13
2019-02-18T23:31:14.679Z,55.58
2019-02-18T23:33:46.541Z,52.67
2019-02-18T23:36:18.366Z,51.48
2019-02-18T23:38:50.250Z,55.60
2019-02-18T23:41:22.042Z,55.65
2019-02-18T23:43:53.904Z,51.98
2019-02-18T23:46:25.693Z,50.78
2019-02-18T23:48:57.552Z,52.27
2019-02-18T23:51:29.345Z,50.90
2019-02-18T23:54:01.189Z,50.70
2019-02-18T23:56:33.076Z,52.33
2019-02-18T23:59:04.862Z,52.75
